Time;durP1;ratioP1;P1;durP2;ratioP2;P2;SDS_P1;SDS_P2;PMS_P1;PMS_P2;Temp;Humidity;BMP_temperature;BMP_pressure;BME280_temperature;BME280_humidity;BME280_pressure;Samples;Min_cycle;Max_cycle;Signal;HPM_P1;HPM_P2
2023/04/14 00:00:19;;;;;;;8.18;2.13;;;;;;;-146.27;96.40;84108.09;5090372;28;20020;-65
2023/04/14 00:02:44;;;;;;;13.15;2.22;;;;;;;-146.27;96.22;84128.22;5088748;28;20024;-65
2023/04/14 00:05:10;;;;;;;9.60;2.78;;;;;;;-146.27;96.94;84088.00;5088817;28;20056;-65
2023/04/14 00:07:35;;;;;;;9.13;1.85;;;;;;;-146.27;96.58;84088.00;5079972;28;20043;-64
2023/04/14 00:10:01;;;;;;;11.82;2.33;;;;;;;-146.27;97.27;84108.09;5085380;28;20059;-64
2023/04/14 00:12:26;;;;;;;11.23;2.03;;;;;;;-146.27;97.38;84096.06;5079090;28;20021;-65
2023/04/14 00:14:52;;;;;;;13.18;2.03;;;;;;;-146.27;97.24;84140.25;5091763;28;20020;-65
2023/04/14 00:17:17;;;;;;;7.25;1.77;;;;;;;-146.27;99.02;84156.34;5088350;28;20093;-64
2023/04/14 00:19:42;;;;;;;15.73;2.55;;;;;;;-146.27;99.21;84164.38;5085353;28;20081;-65
2023/04/14 00:22:07;;;;;;;10.13;2.30;;;;;;;-146.27;98.87;84114.13;5087009;28;20047;-65
2023/04/14 00:24:39;;;;;;;9.70;2.28;;;;;;;-146.27;98.84;84176.44;5089372;28;20028;-64
2023/04/14 00:27:05;;;;;;;4.88;1.98;;;;;;;-146.27;97.51;84174.44;5085088;28;20038;-64
2023/04/14 00:29:30;;;;;;;10.93;1.95;;;;;;;-146.27;99.13;84192.50;5080713;28;20028;-64
2023/04/14 00:31:56;;;;;;;12.88;2.05;;;;;;;-146.27;98.94;84192.50;5084466;28;20028;-65
2023/04/14 00:34:21;;;;;;;9.77;1.88;;;;;;;-146.27;100.00;84176.44;5091282;28;20027;-63
2023/04/14 00:36:46;;;;;;;11.88;2.40;;;;;;;-146.27;100.00;84206.59;5088372;28;20073;-64
2023/04/14 00:39:11;;;;;;;8.32;2.40;;;;;;;-146.27;100.00;84180.47;5092000;28;20026;-66
2023/04/14 00:41:37;;;;;;;6.43;2.08;;;;;;;-146.27;99.74;84186.47;5091354;28;20076;-65
2023/04/14 00:44:02;;;;;;;5.13;2.03;;;;;;;-146.27;99.75;84184.47;5090663;28;20039;-65
2023/04/14 00:46:28;;;;;;;9.13;2.40;;;;;;;-146.27;100.00;84172.41;5085010;28;20032;-64
2023/04/14 00:48:54;;;;;;;13.52;1.92;;;;;;;-146.27;100.00;84190.50;5089217;28;20320;-65
2023/04/14 00:51:20;;;;;;;9.48;2.35;;;;;;;-146.27;100.00;84200.56;5091074;28;20027;-64
2023/04/14 00:53:46;;;;;;;11.30;2.28;;;;;;;-146.27;100.00;84204.56;5078392;28;20029;-65
2023/04/14 00:56:11;;;;;;;5.05;2.00;;;;;;;-146.27;100.00;84196.53;5081824;28;20033;-65
2023/04/14 00:58:37;;;;;;;9.77;2.15;;;;;;;-146.27;100.00;84208.59;5087243;28;20034;-65
2023/04/14 01:01:03;;;;;;;8.77;2.25;;;;;;;-146.27;100.00;84204.56;5083573;28;20050;-64
2023/04/14 01:03:28;;;;;;;7.18;2.13;;;;;;;-146.27;100.00;84204.56;5085755;28;20121;-64
2023/04/14 01:05:54;;;;;;;13.68;1.92;;;;;;;-146.27;100.00;84226.69;5087566;28;20032;-65
2023/04/14 01:08:20;;;;;;;12.50;1.67;;;;;;;-146.27;100.00;84236.72;5088730;28;20031;-65
2023/04/14 01:11:03;;;;;;;16.83;2.40;;;;;;;-146.27;100.00;84226.69;5082747;28;20476;-64
2023/04/14 01:13:39;;;;;;;5.88;1.90;;;;;;;-146.27;100.00;84236.72;5091197;28;20103;-64
2023/04/14 01:16:30;;;;;;;13.32;2.05;;;;;;;-146.27;100.00;84276.94;5083718;28;20487;-65
2023/04/14 01:19:01;;;;;;;11.30;2.13;;;;;;;-146.27;100.00;84228.69;5090542;28;20528;-64
2023/04/14 01:21:34;;;;;;;5.57;1.70;;;;;;;-146.27;100.00;84256.81;5076949;28;20020;-64
2023/04/14 01:24:09;;;;;;;12.55;2.00;;;;;;;-146.27;100.00;84232.72;5089607;28;20028;-66
2023/04/14 01:26:36;;;;;;;16.13;2.28;;;;;;;-146.27;100.00;84240.75;5079967;28;20028;-64
2023/04/14 01:29:01;;;;;;;10.73;2.05;;;;;;;-146.27;100.00;84284.97;5085014;28;20035;-65
2023/04/14 01:31:45;;;;;;;7.45;1.95;;;;;;;-146.27;100.00;84254.81;5088639;28;20028;-64
2023/04/14 01:34:34;;;;;;;8.50;2.63;;;;;;;-146.27;100.00;84216.63;5086237;28;20031;-65
2023/04/14 01:37:12;;;;;;;8.65;2.35;;;;;;;-146.27;100.00;84260.84;5075132;28;20103;-65
2023/04/14 01:39:41;;;;;;;6.45;2.08;;;;;;;-146.27;100.00;84270.91;5086241;28;20419;-64
2023/04/14 01:42:11;;;;;;;10.07;2.45;;;;;;;-146.27;100.00;84258.84;5077875;28;20048;-65
2023/04/14 01:44:39;;;;;;;9.82;1.92;;;;;;;-146.27;100.00;84276.94;5078889;28;20061;-65
2023/04/14 01:47:08;;;;;;;10.95;2.65;;;;;;;-146.27;100.00;84248.78;5077582;28;20024;-65
2023/04/14 01:49:37;;;;;;;10.38;2.08;;;;;;;-146.27;100.00;84248.78;5077264;28;20525;-65
2023/04/14 01:52:06;;;;;;;12.05;2.78;;;;;;;-146.27;100.00;84274.91;5088902;28;20127;-65
2023/04/14 01:54:34;;;;;;;9.18;2.00;;;;;;;-146.27;100.00;84301.03;5087437;28;20028;-65
2023/04/14 01:57:02;;;;;;;11.80;2.33;;;;;;;-146.27;100.00;84295.00;5079989;28;20052;-65
2023/04/14 01:59:30;;;;;;;7.72;2.22;;;;;;;-146.27;100.00;84280.94;5089839;28;20072;-64
2023/04/14 02:01:59;;;;;;;17.17;2.75;;;;;;;-146.27;100.00;84365.34;5084437;28;20024;-65
2023/04/14 02:04:28;;;;;;;11.75;2.75;;;;;;;-146.27;100.00;84288.97;5087439;28;20035;-65
2023/04/14 02:06:57;;;;;;;16.35;2.83;;;;;;;-146.27;100.00;84317.13;5080223;28;20048;-64
2023/04/14 02:09:25;;;;;;;9.35;2.38;;;;;;;-146.27;100.00;84333.19;5077197;28;20151;-65
2023/04/14 02:11:51;;;;;;;13.40;2.15;;;;;;;-146.27;100.00;84284.97;5090009;28;20051;-66
2023/04/14 02:14:18;;;;;;;11.45;3.22;;;;;;;-146.27;100.00;84266.88;5090291;28;20111;-66
2023/04/14 02:16:47;;;;;;;13.38;2.75;;;;;;;-146.27;100.00;84262.84;5085388;28;20028;-65
2023/04/14 02:19:15;;;;;;;15.10;2.60;;;;;;;-146.27;100.00;84305.06;5089149;28;20102;-65
2023/04/14 02:21:41;;;;;;;15.02;3.00;;;;;;;-146.27;100.00;84276.94;5089807;28;20108;-64
2023/04/14 02:24:07;;;;;;;13.32;4.25;;;;;;;-146.27;100.00;84268.88;5095627;28;20102;-65
2023/04/14 02:26:36;;;;;;;12.95;2.25;;;;;;;-146.27;100.00;84258.84;5078533;28;20107;-64
2023/04/14 02:29:08;;;;;;;6.72;2.30;;;;;;;-146.27;100.00;84278.94;5093513;28;20110;-64
2023/04/14 02:31:38;;;;;;;13.73;2.40;;;;;;;-146.27;100.00;84301.03;5088861;28;20531;-64
2023/04/14 02:34:07;;;;;;;14.85;2.78;;;;;;;-146.27;100.00;84291.00;5085748;28;20383;-65
2023/04/14 02:36:46;;;;;;;12.25;2.38;;;;;;;-146.27;100.00;84284.97;5094087;28;20031;-65
2023/04/14 02:39:19;;;;;;;14.27;2.50;;;;;;;-146.27;100.00;84272.91;5095315;28;20023;-64
2023/04/14 02:41:47;;;;;;;22.02;5.25;;;;;;;-146.27;100.00;84291.00;5086383;28;20031;-65
2023/04/14 02:44:23;;;;;;;9.63;2.33;;;;;;;-146.27;100.00;84315.09;5095754;28;20451;-65
2023/04/14 02:47:02;;;;;;;8.10;2.40;;;;;;;-146.27;100.00;84297.03;5094820;28;20476;-65
2023/04/14 02:49:32;;;;;;;9.88;2.08;;;;;;;-146.27;100.00;84331.19;5089074;28;20028;-65
2023/04/14 02:51:58;;;;;;;8.07;1.45;;;;;;;-146.27;100.00;84347.25;5088837;28;20024;-65
2023/04/14 02:54:24;;;;;;;9.82;1.88;;;;;;;-146.27;100.00;84345.25;5091846;28;20032;-65
2023/04/14 02:56:50;;;;;;;8.85;1.73;;;;;;;-146.27;100.00;84337.22;5087343;28;20428;-63
2023/04/14 02:59:17;;;;;;;10.48;2.90;;;;;;;-146.27;100.00;84365.34;5092968;28;20497;-64
2023/04/14 03:01:44;;;;;;;14.60;2.40;;;;;;;-146.27;100.00;84331.19;5086869;28;20028;-63
2023/04/14 03:04:09;;;;;;;10.70;2.00;;;;;;;-146.27;100.00;84361.34;5089757;28;20024;-65
2023/04/14 03:06:37;;;;;;;12.45;3.17;;;;;;;-146.27;100.00;84323.16;5088462;28;20571;-65
2023/04/14 03:09:04;;;;;;;10.88;2.63;;;;;;;-146.27;100.00;84357.31;5094140;28;20031;-65
2023/04/14 03:11:31;;;;;;;15.52;3.00;;;;;;;-146.27;100.00;84361.34;5088343;28;20032;-64
2023/04/14 03:13:58;;;;;;;13.20;2.45;;;;;;;-146.27;100.00;84361.34;5089284;28;20483;-64
2023/04/14 03:16:25;;;;;;;15.25;2.67;;;;;;;-146.27;100.00;84369.38;5093947;28;20491;-64
2023/04/14 03:18:53;;;;;;;9.35;2.55;;;;;;;-146.27;100.00;84333.19;5088122;28;20169;-64
2023/04/14 03:21:20;;;;;;;16.17;2.83;;;;;;;-146.27;100.00;84353.28;5088515;28;20456;-64
2023/04/14 03:23:49;;;;;;;11.45;2.92;;;;;;;-146.27;100.00;84365.34;5079455;28;20020;-64
2023/04/14 03:26:19;;;;;;;10.60;3.83;;;;;;;-146.27;100.00;84343.25;5085088;28;20026;-64
2023/04/14 03:28:52;;;;;;;16.13;2.78;;;;;;;-146.27;100.00;84335.22;5092655;28;20396;-64
2023/04/14 03:31:19;;;;;;;5.90;2.47;;;;;;;-146.27;100.00;84373.41;5089603;28;20028;-65
2023/04/14 03:33:54;;;;;;;9.60;2.42;;;;;;;-146.27;100.00;84361.34;5078891;28;20480;-65
2023/04/14 03:36:21;;;;;;;10.27;2.70;;;;;;;-146.27;100.00;84347.25;5090166;28;20153;-64
2023/04/14 03:38:48;;;;;;;8.98;2.67;;;;;;;-146.27;100.00;84381.44;5093319;28;20035;-65
2023/04/14 03:41:18;;;;;;;9.75;2.58;;;;;;;-146.27;100.00;84377.41;5093222;28;20024;-64
2023/04/14 03:43:44;;;;;;;9.73;2.50;;;;;;;-146.27;100.00;84369.38;5085435;28;20106;-64
2023/04/14 03:46:09;;;;;;;14.00;2.70;;;;;;;-146.27;100.00;84365.34;5094319;28;20128;-64
2023/04/14 03:48:41;;;;;;;9.00;2.65;;;;;;;-146.27;100.00;84365.34;5085681;28;20071;-65
2023/04/14 03:51:10;;;;;;;22.52;3.35;;;;;;;-146.27;100.00;84385.44;5086048;28;20368;-65
2023/04/14 03:53:39;;;;;;;14.65;3.47;;;;;;;-146.27;100.00;84401.53;5080039;28;20480;-65
2023/04/14 03:56:07;;;;;;;12.20;3.03;;;;;;;-146.27;100.00;84393.50;5093742;28;20107;-64
2023/04/14 03:58:33;;;;;;;13.32;4.15;;;;;;;-146.27;100.00;84391.47;5093381;28;20059;-65
2023/04/14 04:01:01;;;;;;;8.20;2.83;;;;;;;-146.27;100.00;84417.59;5088076;28;20430;-64
2023/04/14 04:03:27;;;;;;;17.48;2.85;;;;;;;-146.27;100.00;84423.63;5086889;28;20035;-64
2023/04/14 04:05:53;;;;;;;8.90;3.13;;;;;;;-146.27;100.00;84449.75;5083699;28;20032;-64
2023/04/14 04:08:20;;;;;;;11.57;2.95;;;;;;;-146.27;100.00;84407.56;5085640;28;20500;-64
2023/04/14 04:10:47;;;;;;;15.15;3.25;;;;;;;-146.27;100.00;84393.50;5093577;28;20039;-65
2023/04/14 04:13:16;;;;;;;21.58;4.30;;;;;;;-146.27;100.00;84417.59;5084235;28;20040;-65
2023/04/14 04:15:44;;;;;;;10.95;3.88;;;;;;;-146.27;100.00;84421.63;5091110;28;20055;-65
2023/04/14 04:18:14;;;;;;;10.65;3.65;;;;;;;-146.27;100.00;84421.63;5085254;28;20040;-64
2023/04/14 04:20:40;;;;;;;12.63;3.60;;;;;;;-146.27;100.00;84405.56;5082395;28;20063;-65
2023/04/14 04:23:08;;;;;;;14.00;4.15;;;;;;;-146.27;100.00;84411.56;5082276;28;20024;-65
2023/04/14 04:25:38;;;;;;;12.18;4.28;;;;;;;-146.27;100.00;84431.69;5085664;28;20020;-64
2023/04/14 04:28:04;;;;;;;13.57;5.03;;;;;;;-146.27;100.00;84415.59;5084157;28;20054;-65
2023/04/14 04:30:32;;;;;;;16.48;4.32;;;;;;;-146.27;100.00;84437.72;5093379;28;20020;-65
2023/04/14 04:33:00;;;;;;;10.25;4.50;;;;;;;-146.27;100.00;84449.75;5079101;28;20024;-63
2023/04/14 04:35:27;;;;;;;15.50;4.90;;;;;;;-146.27;100.00;84433.69;5084613;28;20413;-64
2023/04/14 04:37:55;;;;;;;19.83;5.20;;;;;;;-146.27;100.00;84425.66;5087245;28;20030;-64
2023/04/14 04:40:20;;;;;;;16.02;5.15;;;;;;;-146.27;100.00;84439.72;5092108;28;20057;-64
2023/04/14 04:42:46;;;;;;;14.73;5.07;;;;;;;-146.27;100.00;84397.50;5090085;28;20020;-65
2023/04/14 04:45:11;;;;;;;16.38;5.25;;;;;;;-146.27;100.00;84441.72;5093256;28;20077;-65
2023/04/14 04:47:37;;;;;;;23.98;5.53;;;;;;;-146.27;100.00;84419.63;5084165;28;20056;-66
2023/04/14 04:50:02;;;;;;;15.05;5.13;;;;;;;-146.27;100.00;84403.53;5085868;28;20031;-65
2023/04/14 04:52:27;;;;;;;16.00;5.82;;;;;;;-146.27;100.00;84425.66;5086019;28;20031;-65
2023/04/14 04:54:53;;;;;;;25.33;7.10;;;;;;;-146.27;100.00;84429.66;5092137;28;20028;-65
2023/04/14 04:57:18;;;;;;;17.35;5.60;;;;;;;-146.27;100.00;84425.66;5088185;28;20506;-64
2023/04/14 04:59:44;;;;;;;19.70;6.00;;;;;;;-146.27;100.00;84465.84;5078741;28;20062;-64
2023/04/14 05:02:09;;;;;;;21.38;5.93;;;;;;;-146.27;100.00;84441.72;5087095;28;20066;-65
2023/04/14 05:04:35;;;;;;;16.45;6.55;;;;;;;-146.27;100.00;84453.78;5085792;28;20043;-65
2023/04/14 05:07:02;;;;;;;17.60;5.68;;;;;;;-146.27;100.00;84467.84;5084371;28;20119;-64
2023/04/14 05:09:27;;;;;;;18.58;6.60;;;;;;;-146.27;100.00;84449.75;5072454;28;20083;-64
2023/04/14 05:11:53;;;;;;;18.45;6.57;;;;;;;-146.27;100.00;84429.66;5086114;28;20027;-64
2023/04/14 05:14:18;;;;;;;21.25;7.00;;;;;;;-146.27;100.00;84469.88;5089334;28;20463;-64
2023/04/14 05:16:43;;;;;;;32.35;7.68;;;;;;;-146.27;100.00;84457.81;5089875;28;20101;-64
2023/04/14 05:19:09;;;;;;;26.13;7.30;;;;;;;-146.27;100.00;84463.84;5089296;28;20376;-64
2023/04/14 05:21:34;;;;;;;24.73;7.15;;;;;;;-146.27;100.00;84467.84;5087240;28;20452;-64
2023/04/14 05:24:00;;;;;;;29.80;8.48;;;;;;;-146.27;100.00;84433.69;5074871;28;20114;-65
2023/04/14 05:26:25;;;;;;;18.40;7.55;;;;;;;-146.27;100.00;84461.81;5091666;28;20028;-63
2023/04/14 05:28:51;;;;;;;17.27;7.03;;;;;;;-146.27;100.00;84475.91;5081497;28;20032;-65
2023/04/14 05:31:17;;;;;;;25.83;7.55;;;;;;;-146.27;100.00;84465.84;5088091;28;20031;-65
2023/04/14 05:33:42;;;;;;;10.63;6.30;;;;;;;-146.27;100.00;84485.94;5088652;28;20388;-65
2023/04/14 05:36:08;;;;;;;19.10;6.72;;;;;;;-146.27;100.00;84477.91;5091589;28;20020;-65
2023/04/14 05:38:38;;;;;;;15.30;6.90;;;;;;;-146.27;100.00;84455.78;5084010;28;20426;-65
2023/04/14 05:41:04;;;;;;;14.98;6.25;;;;;;;-146.27;100.00;84445.75;5088584;28;20055;-64
2023/04/14 05:43:30;;;;;;;22.67;7.18;;;;;;;-146.27;100.00;84457.81;5087362;28;20442;-66
2023/04/14 05:45:57;;;;;;;25.90;7.50;;;;;;;-146.27;100.00;84477.91;5090345;28;20115;-65
2023/04/14 05:48:23;;;;;;;16.83;6.75;;;;;;;-146.27;100.00;84461.81;5083299;28;20027;-65
2023/04/14 05:50:49;;;;;;;15.90;6.45;;;;;;;-146.27;100.00;84453.78;5089799;28;20032;-65
2023/04/14 05:53:14;;;;;;;18.00;6.53;;;;;;;-146.27;100.00;84473.88;5090401;28;20423;-65
2023/04/14 05:55:40;;;;;;;13.45;6.05;;;;;;;-146.27;100.00;84453.78;5083819;28;20110;-66
2023/04/14 05:58:06;;;;;;;19.08;7.47;;;;;;;-146.27;100.00;84477.91;5083945;28;20024;-64
2023/04/14 06:00:31;;;;;;;15.85;7.00;;;;;;;-146.27;100.00;84477.91;5086824;28;20031;-65
2023/04/14 06:02:56;;;;;;;20.27;6.90;;;;;;;-146.27;100.00;84459.81;5088176;28;20032;-66
2023/04/14 06:05:23;;;;;;;13.05;6.43;;;;;;;-146.27;100.00;84465.84;5090999;28;20653;-65
2023/04/14 06:07:48;;;;;;;10.40;6.15;;;;;;;-146.27;100.00;84425.66;5088562;28;20040;-66
2023/04/14 06:10:13;;;;;;;12.55;6.30;;;;;;;-146.27;100.00;84451.78;5078337;28;20036;-65
2023/04/14 06:12:39;;;;;;;11.10;6.32;;;;;;;-146.27;100.00;84409.56;5089536;28;20498;-64
2023/04/14 06:15:05;;;;;;;15.00;6.40;;;;;;;-146.27;100.00;84421.63;5088201;28;20031;-65
2023/04/14 06:17:31;;;;;;;15.57;6.45;;;;;;;-146.27;100.00;84413.59;5086470;28;20052;-68
2023/04/14 06:19:57;;;;;;;11.65;5.43;;;;;;;-146.27;100.00;84401.53;5089471;28;20032;-64
2023/04/14 06:22:27;;;;;;;11.70;6.50;;;;;;;-146.27;100.00;84365.34;5088299;28;20032;-64
2023/04/14 06:24:53;;;;;;;14.55;6.40;;;;;;;-146.27;100.00;84385.44;5084224;28;20032;-65
2023/04/14 06:27:18;;;;;;;17.88;6.30;;;;;;;-146.27;100.00;84365.34;5088944;28;20491;-65
2023/04/14 06:29:44;;;;;;;16.27;6.93;;;;;;;-146.27;100.00;84353.28;5091741;28;20031;-67
2023/04/14 06:32:09;;;;;;;13.88;6.63;;;;;;;-146.27;100.00;84361.34;5082508;28;20056;-67
2023/04/14 06:34:35;;;;;;;15.35;6.63;;;;;;;-146.27;100.00;84333.19;5089380;28;20032;-67
2023/04/14 06:37:00;;;;;;;16.52;6.90;;;;;;;-146.27;100.00;84383.44;5086809;28;20016;-66
2023/04/14 06:39:26;;;;;;;12.00;6.10;;;;;;;-146.27;100.00;84325.16;5084795;28;20383;-66
2023/04/14 06:41:51;;;;;;;15.05;6.53;;;;;;;-146.27;100.00;84313.09;5084584;28;20874;-66
2023/04/14 06:44:17;;;;;;;15.43;6.40;;;;;;;-146.27;100.00;84293.00;5090187;28;20032;-66
2023/04/14 06:46:42;;;;;;;17.55;6.50;;;;;;;-146.27;100.00;84317.13;5091717;28;20027;-66
2023/04/14 06:49:07;;;;;;;12.15;5.82;;;;;;;-146.27;100.00;84323.16;5081842;28;20483;-67
2023/04/14 06:51:33;;;;;;;20.98;6.82;;;;;;;-146.27;100.00;84276.94;5090749;28;20060;-68
2023/04/14 06:53:59;;;;;;;15.93;6.85;;;;;;;-146.27;100.00;84272.91;5088183;28;20036;-66
2023/04/14 06:56:24;;;;;;;17.70;6.97;;;;;;;-146.27;100.00;84311.09;5089978;28;20380;-66
2023/04/14 06:58:50;;;;;;;12.10;6.13;;;;;;;-146.27;100.00;84234.72;5088516;28;20043;-66
2023/04/14 07:01:15;;;;;;;16.33;6.43;;;;;;;-146.27;100.00;84256.81;5087969;28;20417;-67
2023/04/14 07:03:42;;;;;;;18.25;6.80;;;;;;;-146.27;100.00;84218.63;5088833;28;20028;-66
2023/04/14 07:06:10;;;;;;;19.80;6.88;;;;;;;-146.27;100.00;84224.66;5083736;28;20380;-68
2023/04/14 07:08:36;;;;;;;12.98;6.60;;;;;;;-146.27;100.00;84240.75;5087698;28;20045;-67
2023/04/14 07:11:07;;;;;;;14.65;7.18;;;;;;;-146.27;100.00;84182.47;5094720;28;20403;-66
2023/04/14 07:13:33;;;;;;;15.73;5.68;;;;;;;-146.27;100.00;84188.50;5095261;28;20357;-66
2023/04/14 07:16:02;;;;;;;16.80;6.78;;;;;;;-146.27;100.00;84180.47;5093383;28;20024;-65
2023/04/14 07:18:29;;;;;;;17.27;5.72;;;;;;;-146.27;100.00;84172.41;5086045;28;20510;-65
2023/04/14 07:20:54;;;;;;;15.63;5.50;;;;;;;-146.27;100.00;84148.31;5091511;28;20044;-66
2023/04/14 07:23:21;;;;;;;13.32;5.72;;;;;;;-146.27;100.00;84126.19;5083597;28;20078;-66
2023/04/14 07:25:51;;;;;;;9.70;5.20;;;;;;;-146.27;100.00;84112.13;5092146;28;20024;-66
2023/04/14 07:28:17;;;;;;;14.65;5.28;;;;;;;-146.27;100.00;84088.00;5093077;28;20399;-66
2023/04/14 07:30:43;;;;;;;14.90;4.72;;;;;;;-146.27;100.00;84077.97;5091280;28;20030;-65
2023/04/14 07:33:08;;;;;;;13.63;5.65;;;;;;;-146.27;100.00;84077.97;5094330;28;20476;-66
2023/04/14 07:35:34;;;;;;;12.55;5.45;;;;;;;-146.27;100.00;84055.84;5092219;28;20499;-66
2023/04/14 07:37:59;;;;;;;11.77;5.47;;;;;;;-146.27;100.00;84063.91;5093621;28;20080;-67
2023/04/14 07:40:25;;;;;;;14.73;4.88;;;;;;;-146.27;100.00;83993.56;5092475;28;20368;-65
2023/04/14 07:42:51;;;;;;;13.82;4.65;;;;;;;-146.27;100.00;84005.63;5093890;28;20024;-65
2023/04/14 07:45:16;;;;;;;12.88;4.80;;;;;;;-146.27;100.00;83979.50;5092082;28;20028;-65
2023/04/14 07:47:42;;;;;;;12.15;4.43;;;;;;;-146.27;100.00;83969.44;5077998;28;20035;-65
2023/04/14 07:50:07;;;;;;;9.88;4.72;;;;;;;-146.27;100.00;84009.63;5082315;28;20012;-66
2023/04/14 07:52:33;;;;;;;12.77;5.10;;;;;;;-146.27;100.00;83975.47;5086278;28;20028;-67
2023/04/14 07:54:58;;;;;;;15.45;4.63;;;;;;;-146.27;100.00;83971.47;5083411;28;20025;-66
2023/04/14 07:57:23;;;;;;;10.77;5.00;;;;;;;-146.27;100.00;83967.44;5090504;28;20109;-65
2023/04/14 07:59:48;;;;;;;14.63;4.28;;;;;;;-146.27;100.00;83923.22;5092557;28;20024;-66
2023/04/14 08:02:14;;;;;;;13.55;4.30;;;;;;;-146.27;100.00;83983.50;5087717;28;20364;-66
2023/04/14 08:04:40;;;;;;;13.80;4.30;;;;;;;-146.27;100.00;83943.31;5092843;28;20391;-67
2023/04/14 08:07:05;;;;;;;11.05;5.05;;;;;;;-146.27;100.00;83931.25;5085469;28;20508;-66
2023/04/14 08:09:31;;;;;;;8.75;4.47;;;;;;;-146.27;99.29;83921.22;5090885;28;20024;-66
2023/04/14 08:11:56;;;;;;;14.60;3.95;;;;;;;-146.27;97.96;83864.94;5086604;28;20536;-66
2023/04/14 08:14:22;;;;;;;12.45;4.00;;;;;;;-146.27;97.73;83881.03;5090325;28;20032;-66
2023/04/14 08:16:48;;;;;;;11.65;4.55;;;;;;;-146.27;97.48;83870.97;5090280;28;20503;-66
2023/04/14 08:19:13;;;;;;;7.45;3.63;;;;;;;-146.27;96.98;83846.84;5092250;28;20031;-66
2023/04/14 08:21:39;;;;;;;5.00;3.10;;;;;;;-146.27;95.64;83824.75;5074469;28;20108;-66
2023/04/14 08:24:05;;;;;;;7.20;3.38;;;;;;;-146.27;93.85;83806.66;5088818;28;20233;-65
2023/04/14 08:26:31;;;;;;;14.00;3.83;;;;;;;-146.27;95.61;83826.75;5089809;28;20031;-65
2023/04/14 08:28:56;;;;;;;9.15;3.85;;;;;;;-146.27;94.55;83790.59;5093295;28;20387;-66
2023/04/14 08:31:23;;;;;;;13.95;3.70;;;;;;;-146.27;94.64;83758.44;5090981;28;20060;-65
2023/04/14 08:33:48;;;;;;;15.07;3.75;;;;;;;-146.27;93.42;83750.41;5093545;28;20032;-66
2023/04/14 08:36:13;;;;;;;10.68;3.38;;;;;;;-146.27;92.46;83710.22;5093594;28;20032;-66
2023/04/14 08:38:39;;;;;;;5.05;3.72;;;;;;;-146.27;92.74;83706.19;5079509;28;20069;-65
2023/04/14 08:41:07;;;;;;;6.97;3.15;;;;;;;-146.27;91.71;83674.03;5084031;28;20063;-65
2023/04/14 08:43:34;;;;;;;14.27;3.55;;;;;;;-146.27;89.72;83627.81;5085960;28;20020;-66
2023/04/14 08:46:00;;;;;;;7.90;2.83;;;;;;;-146.27;88.57;83633.84;5087393;28;20028;-66
2023/04/14 08:48:29;;;;;;;7.15;2.40;;;;;;;-146.27;86.01;83625.81;5081395;28;20031;-67
2023/04/14 08:51:01;;;;;;;4.95;2.33;;;;;;;-146.27;85.64;83567.53;5091292;28;20027;-66
2023/04/14 08:53:30;;;;;;;11.23;2.63;;;;;;;-146.27;86.24;83545.44;5089307;28;20117;-65
2023/04/14 08:55:57;;;;;;;5.45;2.50;;;;;;;-146.27;83.18;83581.59;5094644;28;20028;-66
2023/04/14 08:58:23;;;;;;;3.35;1.60;;;;;;;-146.27;79.96;83499.22;5083072;28;20060;-66
2023/04/14 09:00:48;;;;;;;4.45;1.83;;;;;;;-146.27;74.81;83521.34;5086317;28;20059;-66
2023/04/14 09:03:14;;;;;;;4.45;1.60;;;;;;;-146.27;75.39;83501.22;5092964;28;20480;-67
2023/04/14 09:05:40;;;;;;;4.20;2.63;;;;;;;-146.27;75.66;83457.03;5090978;28;20020;-68
2023/04/14 09:08:06;;;;;;;9.20;2.70;;;;;;;-146.27;75.21;83469.09;5083883;28;20049;-66
2023/04/14 09:10:31;;;;;;;6.15;2.22;;;;;;;-146.27;75.65;83455.03;5082454;28;20369;-66
2023/04/14 09:12:57;;;;;;;3.05;1.50;;;;;;;-146.27;74.52;83440.94;5102220;28;20017;-66
2023/04/14 09:15:26;;;;;;;5.57;1.60;;;;;;;-146.27;69.27;83455.03;5085942;28;20072;-67
2023/04/14 09:17:52;;;;;;;5.68;2.03;;;;;;;-146.27;75.26;83402.78;5090484;28;20031;-67
2023/04/14 09:20:18;;;;;;;7.18;2.10;;;;;;;-146.27;72.93;83356.56;5093149;28;20024;-68
2023/04/14 09:22:43;;;;;;;6.15;1.35;;;;;;;-146.27;69.11;83332.44;5090399;28;20069;-67
2023/04/14 09:25:09;;;;;;;4.65;1.35;;;;;;;-146.27;68.00;83330.44;5086929;28;20024;-66
2023/04/14 09:27:35;;;;;;;6.20;1.55;;;;;;;-146.27;65.26;83300.31;5090227;28;20115;-67
2023/04/14 09:30:02;;;;;;;3.50;1.15;;;;;;;-146.27;64.25;83320.41;5092294;28;20069;-67
2023/04/14 09:32:27;;;;;;;6.22;1.08;;;;;;;-146.27;64.49;83312.34;5083172;28;20028;-67
2023/04/14 09:34:53;;;;;;;6.32;1.35;;;;;;;-146.27;62.72;83240.03;5092533;28;20081;-67
2023/04/14 09:37:19;;;;;;;6.78;1.30;;;;;;;-146.27;61.43;83268.16;5082851;28;20529;-67
2023/04/14 09:39:51;;;;;;;3.70;1.20;;;;;;;-146.27;64.00;83262.13;5079758;28;20461;-67
2023/04/14 09:42:17;;;;;;;4.43;1.23;;;;;;;-146.27;62.65;83232.00;5084759;28;20063;-67
2023/04/14 09:44:56;;;;;;;5.47;1.50;;;;;;;-146.27;58.91;83159.66;5092396;28;20361;-68
2023/04/14 09:47:25;;;;;;;3.50;1.33;;;;;;;-146.27;57.44;83175.72;5089453;28;20464;-67
2023/04/14 09:50:04;;;;;;;4.60;1.38;;;;;;;-146.27;56.88;83189.78;5090339;28;20024;-66
2023/04/14 09:52:47;;;;;;;4.35;1.17;;;;;;;-146.27;55.67;83131.53;5079876;28;20028;-68
2023/04/14 09:55:14;;;;;;;7.88;1.48;;;;;;;-146.27;55.56;83131.53;5087502;28;20081;-66
2023/04/14 09:57:46;;;;;;;7.18;1.52;;;;;;;-146.27;57.60;83119.47;5089536;28;20050;-67
2023/04/14 10:00:14;;;;;;;6.47;1.70;;;;;;;-146.27;56.48;83111.44;5092043;28;20034;-66
2023/04/14 10:02:54;;;;;;;5.63;1.63;;;;;;;-146.27;55.02;83071.25;5087887;28;20033;-65
2023/04/14 10:05:24;;;;;;;4.80;1.80;;;;;;;-146.27;53.39;83065.22;5088601;28;20020;-66
2023/04/14 10:07:50;;;;;;;6.05;2.05;;;;;;;-146.27;53.79;83021.03;5078810;28;20113;-66
2023/04/14 10:10:15;;;;;;;7.68;1.48;;;;;;;-146.27;52.22;83039.09;5081799;28;20036;-66
2023/04/14 10:12:42;;;;;;;8.20;2.35;;;;;;;-146.27;53.84;83071.25;5086407;28;20028;-66
2023/04/14 10:15:09;;;;;;;6.97;2.20;;;;;;;-146.27;54.21;83043.13;5080450;28;20024;-67
2023/04/14 10:17:36;;;;;;;4.82;1.83;;;;;;;-146.27;55.37;83023.03;5087219;28;20062;-66
2023/04/14 10:20:04;;;;;;;5.20;1.95;;;;;;;-146.27;54.10;83017.00;5080152;28;20031;-66
2023/04/14 10:22:30;;;;;;;6.95;2.00;;;;;;;-146.27;58.98;82972.81;5090627;28;20051;-67
2023/04/14 10:24:58;;;;;;;8.45;2.50;;;;;;;-146.27;56.61;83023.03;5091181;28;20420;-68
2023/04/14 10:27:25;;;;;;;4.90;1.80;;;;;;;-146.27;54.32;82964.78;5090933;28;20028;-66
2023/04/14 10:29:51;;;;;;;7.10;2.00;;;;;;;-146.27;56.85;82928.59;5091864;28;20157;-67
2023/04/14 10:32:18;;;;;;;5.05;1.67;;;;;;;-146.27;52.99;82978.84;5091365;28;20020;-67
2023/04/14 10:35:02;;;;;;;5.72;1.90;;;;;;;-146.27;53.18;82982.84;5089976;28;20032;-67
2023/04/14 10:37:27;;;;;;;4.93;1.52;;;;;;;-146.27;52.84;82990.88;5089655;28;20028;-66
2023/04/14 10:39:58;;;;;;;7.68;1.70;;;;;;;-146.27;49.02;83006.97;5090946;28;20020;-65
2023/04/14 10:42:24;;;;;;;4.60;1.42;;;;;;;-146.27;48.82;82982.84;5083885;28;20423;-65
2023/04/14 10:45:06;;;;;;;4.30;1.30;;;;;;;-146.27;49.32;83002.94;5090860;28;20235;-65
2023/04/14 10:47:34;;;;;;;3.95;1.55;;;;;;;-146.27;47.81;82920.56;5089985;28;20106;-65
2023/04/14 10:50:09;;;;;;;5.63;1.38;;;;;;;-146.27;47.62;82836.19;5087627;28;20115;-64
2023/04/14 10:52:34;;;;;;;2.88;1.00;;;;;;;-146.27;45.23;82781.94;5087801;28;20028;-65
2023/04/14 10:55:06;;;;;;;4.53;1.35;;;;;;;-146.27;45.10;82785.97;5094555;28;20081;-65
2023/04/14 10:57:43;;;;;;;6.93;1.30;;;;;;;-146.27;45.58;82741.78;5081058;28;20091;-65
2023/04/14 11:00:30;;;;;;;4.20;1.52;;;;;;;-146.27;44.38;82679.50;5085720;28;20131;-67
2023/04/14 11:03:02;;;;;;;4.38;1.30;;;;;;;-146.27;43.58;82657.41;5091048;28;20111;-65
2023/04/14 11:05:28;;;;;;;4.78;1.40;;;;;;;-146.27;42.87;82653.38;5075872;28;20120;-66
2023/04/14 11:07:56;;;;;;;6.97;1.40;;;;;;;-146.27;42.84;82683.50;5088988;28;20119;-68